Time;durP1;ratioP1;P1;durP2;ratioP2;P2;SDS_P1;SDS_P2;PMS_P1;PMS_P2;Temp;Humidity;BMP_temperature;BMP_pressure;BME280_temperature;BME280_humidity;BME280_pressure;Samples;Min_cycle;Max_cycle;Signal;HPM_P1;HPM_P2
2021/10/02 00:37:29;;;;;;;8.40;2.33;;;;;;;;;;5070354;28;20055;-65
2021/10/02 00:45:22;;;;;;;7.90;2.45;;;;;;;;;;5070498;28;20028;-65
2021/10/02 00:47:51;;;;;;;4.15;1.77;;;;;;;;;;5070096;28;20024;-66
2021/10/02 00:50:17;;;;;;;6.47;1.75;;;;;;;;;;5070378;28;20036;-65
2021/10/02 00:52:42;;;;;;;5.60;2.10;;;;;;;;;;5069660;28;20029;-66
2021/10/02 00:55:07;;;;;;;4.80;1.70;;;;;;;;;;5070434;28;20021;-65
2021/10/02 00:57:33;;;;;;;6.88;1.85;;;;;;;;;;5070388;28;20346;-64
2021/10/02 00:59:58;;;;;;;6.82;2.33;;;;;;;;;;5069953;28;20009;-64
2021/10/02 01:02:37;;;;;;;5.20;2.03;;;;;;;;;;5068574;28;20027;-64
2021/10/02 01:05:17;;;;;;;14.73;1.45;;;;;;;;;;5070042;28;20032;-64
2021/10/02 01:08:01;;;;;;;5.15;1.65;;;;;;;;;;5070255;28;20032;-64
2021/10/02 01:10:32;;;;;;;5.82;2.15;;;;;;;;;;5067504;28;20028;-65
2021/10/02 01:13:01;;;;;;;6.88;2.22;;;;;;;;;;5068595;28;20036;-65
2021/10/02 01:15:26;;;;;;;6.97;2.55;;;;;;;;;;5069838;28;20012;-65
2021/10/02 01:17:54;;;;;;;4.53;1.95;;;;;;;;;;5069424;28;20178;-65
2021/10/02 01:20:38;;;;;;;11.63;2.10;;;;;;;;;;5070146;28;20010;-65
2021/10/02 01:23:22;;;;;;;6.72;2.20;;;;;;;;;;5069332;28;20021;-66
2021/10/02 01:25:53;;;;;;;6.38;2.17;;;;;;;;;;5070241;28;20477;-65
2021/10/02 01:28:19;;;;;;;12.98;2.78;;;;;;;;;;5069813;28;20370;-65
2021/10/02 01:47:16;;;;;;;5.97;2.10;;;;;;;;;;5070120;28;20515;-64
2021/10/02 01:49:43;;;;;;;8.30;2.70;;;;;;;;;;5069249;28;20032;-64
2021/10/02 01:52:09;;;;;;;3.97;2.10;;;;;;;;;;5069932;28;20392;-66
2021/10/02 01:54:35;;;;;;;6.68;2.03;;;;;;;;;;5069719;28;20035;-64
2021/10/02 01:57:01;;;;;;;8.82;3.08;;;;;;;;;;5069788;28;20095;-64
2021/10/02 01:59:28;;;;;;;7.10;2.22;;;;;;;;;;5068460;28;20473;-64
2021/10/02 02:01:54;;;;;;;4.25;1.92;;;;;;;;;;5069413;28;20066;-66
2021/10/02 02:04:20;;;;;;;5.15;2.30;;;;;;;;;;5068718;28;20021;-65
2021/10/02 02:06:47;;;;;;;7.28;2.53;;;;;;;;;;5069755;28;20028;-67
2021/10/02 02:09:15;;;;;;;5.22;2.00;;;;;;;;;;5069531;28;20024;-65
2021/10/02 02:11:40;;;;;;;7.18;2.30;;;;;;;;;;5069423;28;20103;-65
2021/10/02 02:14:09;;;;;;;7.25;2.83;;;;;;;;;;5068709;28;20139;-67
2021/10/02 02:16:35;;;;;;;5.43;2.10;;;;;;;;;;5057753;28;20044;-66
2021/10/02 02:19:00;;;;;;;9.18;1.98;;;;;;;;;;5068998;28;20059;-67
2021/10/02 02:21:26;;;;;;;7.95;1.52;;;;;;;;;;5069337;28;20012;-66
2021/10/02 02:23:51;;;;;;;6.93;2.13;;;;;;;;;;5069652;28;20027;-66
2021/10/02 02:26:17;;;;;;;4.97;2.55;;;;;;;;;;5072953;28;20078;-65
2021/10/02 02:28:42;;;;;;;7.03;1.90;;;;;;;;;;5072742;28;20055;-65
2021/10/02 02:31:08;;;;;;;6.97;1.80;;;;;;;;;;5073158;28;20052;-65
2021/10/02 02:33:34;;;;;;;5.10;1.98;;;;;;;;;;5072165;28;20024;-65
2021/10/02 02:35:59;;;;;;;7.40;2.20;;;;;;;;;;5072897;28;20500;-65
2021/10/02 02:38:24;;;;;;;4.75;1.90;;;;;;;;;;5072559;28;20490;-65
2021/10/02 02:40:50;;;;;;;4.65;1.52;;;;;;;;;;5072487;28;20595;-65
2021/10/02 02:43:16;;;;;;;5.32;2.53;;;;;;;;;;5072976;28;20020;-65
2021/10/02 02:45:43;;;;;;;6.13;2.38;;;;;;;;;;5072868;28;20039;-64
2021/10/02 02:48:17;;;;;;;6.70;1.90;;;;;;;;;;5072144;28;20035;-65
2021/10/02 02:50:43;;;;;;;5.57;2.22;;;;;;;;;;5072689;28;20725;-66
2021/10/02 02:53:15;;;;;;;3.97;1.60;;;;;;;;;;5072028;28;20126;-64
2021/10/02 02:55:44;;;;;;;5.20;2.13;;;;;;;;;;5071593;28;20255;-67
2021/10/02 02:58:10;;;;;;;9.32;2.65;;;;;;;;;;5072005;28;20381;-64
2021/10/02 03:00:42;;;;;;;4.32;1.58;;;;;;;;;;5071736;28;20029;-66
2021/10/02 03:03:10;;;;;;;5.72;2.88;;;;;;;;;;5071895;28;20029;-65
2021/10/02 03:05:40;;;;;;;5.50;2.42;;;;;;;;;;5071695;28;20035;-66
2021/10/02 03:08:08;;;;;;;9.07;2.65;;;;;;;;;;5072056;28;20020;-65
2021/10/02 03:10:33;;;;;;;4.32;2.00;;;;;;;;;;5071629;28;20025;-66
2021/10/02 03:13:11;;;;;;;4.28;1.92;;;;;;;;;;5071533;28;20107;-66
2021/10/02 03:15:38;;;;;;;4.38;1.40;;;;;;;;;;5067107;28;20020;-64
2021/10/02 03:18:03;;;;;;;4.43;2.30;;;;;;;;;;5071767;28;20028;-64
2021/10/02 03:20:29;;;;;;;6.10;2.33;;;;;;;;;;5070868;28;20062;-64
2021/10/02 03:22:55;;;;;;;9.63;1.95;;;;;;;;;;5070986;28;20514;-65
2021/10/02 03:25:21;;;;;;;6.28;2.38;;;;;;;;;;5060001;28;20020;-66
2021/10/02 03:27:47;;;;;;;12.35;2.35;;;;;;;;;;5071570;28;20031;-65
2021/10/02 03:30:12;;;;;;;9.00;2.55;;;;;;;;;;5071280;28;20024;-66
2021/10/02 03:32:37;;;;;;;9.68;2.08;;;;;;;;;;5071417;28;20082;-65
2021/10/02 03:35:03;;;;;;;7.80;2.27;;;;;;;;;;5071110;28;20381;-65
2021/10/02 03:37:28;;;;;;;5.13;2.47;;;;;;;;;;5070907;28;20346;-64
2021/10/02 03:39:54;;;;;;;3.63;1.73;;;;;;;;;;5071807;28;20361;-65
2021/10/02 03:42:22;;;;;;;9.13;1.88;;;;;;;;;;5070757;28;20020;-66
2021/10/02 03:44:48;;;;;;;4.20;1.95;;;;;;;;;;5071475;28;20093;-65
2021/10/02 03:47:14;;;;;;;9.82;2.83;;;;;;;;;;5071243;28;20052;-64
2021/10/02 03:49:40;;;;;;;9.02;2.53;;;;;;;;;;5070851;28;20031;-64
2021/10/02 03:52:06;;;;;;;5.18;1.83;;;;;;;;;;5068722;28;20107;-65
2021/10/02 03:54:32;;;;;;;7.97;2.70;;;;;;;;;;5064930;28;20496;-65
2021/10/02 03:56:57;;;;;;;3.45;1.73;;;;;;;;;;5070868;28;20031;-67
2021/10/02 03:59:22;;;;;;;6.32;1.88;;;;;;;;;;5070305;28;20041;-64
2021/10/02 04:01:47;;;;;;;3.97;2.15;;;;;;;;;;5070462;28;20784;-64
2021/10/02 04:04:13;;;;;;;5.40;1.75;;;;;;;;;;5070657;28;20031;-64
2021/10/02 04:06:38;;;;;;;6.27;2.20;;;;;;;;;;5071017;28;20066;-65
2021/10/02 04:09:03;;;;;;;4.07;1.67;;;;;;;;;;5070887;28;20758;-64
2021/10/02 04:11:30;;;;;;;10.23;2.97;;;;;;;;;;5071530;28;20294;-66
2021/10/02 04:13:55;;;;;;;6.47;2.00;;;;;;;;;;5070370;28;20528;-66
2021/10/02 04:16:20;;;;;;;4.03;1.75;;;;;;;;;;5071268;28;20023;-65
2021/10/02 04:18:46;;;;;;;2.80;1.83;;;;;;;;;;5070497;28;20029;-66
2021/10/02 04:21:12;;;;;;;2.07;1.47;;;;;;;;;;5070324;28;20266;-65
2021/10/02 04:23:37;;;;;;;4.07;2.20;;;;;;;;;;5070298;28;20477;-65
2021/10/02 04:26:02;;;;;;;4.60;2.40;;;;;;;;;;5070210;28;20392;-66
2021/10/02 04:28:27;;;;;;;5.87;2.20;;;;;;;;;;5070759;28;20263;-65
2021/10/02 04:30:52;;;;;;;2.93;1.80;;;;;;;;;;5070555;28;20342;-65
2021/10/02 04:33:18;;;;;;;11.83;2.17;;;;;;;;;;5070287;28;20274;-66
2021/10/02 04:35:43;;;;;;;4.47;2.33;;;;;;;;;;5069880;28;20267;-67
2021/10/02 04:38:09;;;;;;;8.30;2.20;;;;;;;;;;5070687;28;20713;-65
2021/10/02 04:40:34;;;;;;;5.53;2.15;;;;;;;;;;5070567;28;20021;-67
2021/10/02 04:42:59;;;;;;;4.77;1.80;;;;;;;;;;5069684;28;20028;-66
2021/10/02 04:45:24;;;;;;;5.40;1.60;;;;;;;;;;5070614;28;20271;-67
2021/10/02 04:47:50;;;;;;;4.53;2.67;;;;;;;;;;5069892;28;20263;-65
2021/10/02 04:50:15;;;;;;;5.50;1.98;;;;;;;;;;5070264;28;20374;-66
2021/10/02 04:52:40;;;;;;;7.40;2.58;;;;;;;;;;5069249;28;20099;-65
2021/10/02 04:55:06;;;;;;;5.60;2.43;;;;;;;;;;5070438;28;20070;-65
2021/10/02 04:57:31;;;;;;;4.40;1.75;;;;;;;;;;5070293;28;20328;-68
2021/10/02 04:59:56;;;;;;;6.20;2.55;;;;;;;;;;5070007;28;20022;-66
2021/10/02 05:02:21;;;;;;;4.97;2.17;;;;;;;;;;5069921;28;20520;-67
2021/10/02 05:04:47;;;;;;;7.57;2.30;;;;;;;;;;5070279;28;20271;-65
2021/10/02 05:07:12;;;;;;;6.10;2.50;;;;;;;;;;5070271;28;20274;-66
2021/10/02 05:09:40;;;;;;;2.90;1.83;;;;;;;;;;5069784;28;20912;-65
2021/10/02 05:12:06;;;;;;;6.00;2.65;;;;;;;;;;5069985;28;20020;-68
2021/10/02 05:14:31;;;;;;;4.50;2.33;;;;;;;;;;5068814;28;20017;-65
2021/10/02 05:16:56;;;;;;;4.23;2.10;;;;;;;;;;5069972;28;20024;-65
2021/10/02 05:19:21;;;;;;;7.23;2.13;;;;;;;;;;5065222;28;20369;-66
2021/10/02 05:21:46;;;;;;;3.97;2.03;;;;;;;;;;5064483;28;20320;-66
2021/10/02 05:24:12;;;;;;;8.68;2.60;;;;;;;;;;5066774;28;20634;-65
2021/10/02 05:26:37;;;;;;;6.55;2.40;;;;;;;;;;5067976;28;20058;-65
2021/10/02 05:29:02;;;;;;;6.95;2.58;;;;;;;;;;5067933;28;20103;-66
2021/10/02 05:31:27;;;;;;;3.97;2.45;;;;;;;;;;5068060;28;20027;-65
2021/10/02 05:33:52;;;;;;;4.10;2.40;;;;;;;;;;5067229;28;20028;-66
2021/10/02 05:36:17;;;;;;;4.60;2.45;;;;;;;;;;5067696;28;20659;-65
2021/10/02 05:38:43;;;;;;;7.03;2.10;;;;;;;;;;5062160;28;20032;-65
2021/10/02 05:41:08;;;;;;;5.20;2.10;;;;;;;;;;5067978;28;20032;-65
2021/10/02 05:43:33;;;;;;;8.20;2.97;;;;;;;;;;5067345;28;20387;-66
2021/10/02 05:45:58;;;;;;;3.92;2.05;;;;;;;;;;5067589;28;20779;-64
2021/10/02 05:48:23;;;;;;;3.50;2.10;;;;;;;;;;5068238;28;20495;-64
2021/10/02 05:50:49;;;;;;;3.75;1.95;;;;;;;;;;5068104;23;20663;-89
2021/10/02 05:53:14;;;;;;;5.43;2.30;;;;;;;;;;5049487;28;20028;-88
2021/10/02 05:55:39;;;;;;;7.03;2.10;;;;;;;;;;5026034;28;20021;-86
2021/10/02 05:58:05;;;;;;;3.92;2.28;;;;;;;;;;5025922;28;20021;-87
2021/10/02 06:00:30;;;;;;;6.07;1.80;;;;;;;;;;5034449;28;20056;-86
2021/10/02 06:03:00;;;;;;;4.38;1.77;;;;;;;;;;5037099;28;20036;-87
2021/10/02 06:05:26;;;;;;;5.32;1.92;;;;;;;;;;5045107;28;20498;-87
2021/10/02 06:07:52;;;;;;;2.22;1.40;;;;;;;;;;5044930;28;20376;-87
2021/10/02 06:10:17;;;;;;;3.72;1.80;;;;;;;;;;5054531;23;20474;-66
2021/10/02 06:12:42;;;;;;;7.83;1.73;;;;;;;;;;5086941;28;20040;-66
2021/10/02 06:15:07;;;;;;;5.00;1.90;;;;;;;;;;5092714;28;20262;-67
2021/10/02 06:17:32;;;;;;;1.60;1.02;;;;;;;;;;5092828;28;20265;-66
2021/10/02 06:22:25;;;;;;;2.13;1.50;;;;;;;;;;5050963;28;20303;-65
2021/10/02 06:24:50;;;;;;;2.63;1.47;;;;;;;;;;5051984;28;20487;-65
2021/10/02 06:27:16;;;;;;;2.40;1.60;;;;;;;;;;5051246;28;20285;-65
2021/10/02 06:29:41;;;;;;;5.28;2.13;;;;;;;;;;5053226;28;20036;-64
2021/10/02 06:32:06;;;;;;;3.85;2.13;;;;;;;;;;5051592;28;20059;-65
2021/10/02 06:34:31;;;;;;;6.35;2.30;;;;;;;;;;5051721;28;20091;-65
2021/10/02 06:36:57;;;;;;;3.75;1.95;;;;;;;;;;5051132;28;20013;-65
2021/10/02 06:39:22;;;;;;;8.43;2.10;;;;;;;;;;5052074;28;20461;-65
2021/10/02 06:41:47;;;;;;;2.42;1.38;;;;;;;;;;5052215;28;20275;-66
2021/10/02 06:44:12;;;;;;;4.00;2.03;;;;;;;;;;5052408;28;20063;-64
2021/10/02 06:46:37;;;;;;;6.60;2.20;;;;;;;;;;5051738;28;20670;-65
2021/10/02 06:49:03;;;;;;;3.50;1.80;;;;;;;;;;5052159;28;20128;-64
2021/10/02 06:51:28;;;;;;;4.38;2.20;;;;;;;;;;5052602;28;20120;-64
2021/10/02 06:53:53;;;;;;;5.30;2.27;;;;;;;;;;5051506;28;20060;-66
2021/10/02 06:56:18;;;;;;;4.63;2.03;;;;;;;;;;5051918;28;20267;-65
2021/10/02 06:58:43;;;;;;;3.72;2.20;;;;;;;;;;5051910;28;20021;-66
2021/10/02 07:01:09;;;;;;;7.43;2.38;;;;;;;;;;5051999;28;20485;-68
2021/10/02 07:03:34;;;;;;;4.77;1.90;;;;;;;;;;5051583;28;20116;-67
2021/10/02 07:05:59;;;;;;;3.77;2.23;;;;;;;;;;5050099;28;20281;-67
2021/10/02 07:08:24;;;;;;;4.45;2.10;;;;;;;;;;5049391;28;20306;-67
2021/10/02 07:10:49;;;;;;;5.40;2.10;;;;;;;;;;5050446;28;20469;-65
2021/10/02 07:13:15;;;;;;;1.67;1.27;;;;;;;;;;5049251;28;20294;-65
2021/10/02 07:15:40;;;;;;;8.30;1.65;;;;;;;;;;5046909;28;20029;-65
2021/10/02 07:18:05;;;;;;;3.57;2.00;;;;;;;;;;5050012;28;20092;-65
2021/10/02 07:20:30;;;;;;;4.25;2.13;;;;;;;;;;5049228;28;20671;-65
2021/10/02 07:22:55;;;;;;;3.83;2.00;;;;;;;;;;5049543;28;20493;-64
2021/10/02 07:25:25;;;;;;;3.60;1.73;;;;;;;;;;5049912;28;20050;-65
2021/10/02 07:27:50;;;;;;;2.47;1.80;;;;;;;;;;5044679;28;20654;-64
2021/10/02 07:30:16;;;;;;;3.00;1.70;;;;;;;;;;5047234;28;20025;-65
2021/10/02 07:32:41;;;;;;;4.55;1.70;;;;;;;;;;5048766;28;20025;-67
2021/10/02 07:35:07;;;;;;;5.53;1.67;;;;;;;;;;5048905;28;20146;-65
2021/10/02 07:37:33;;;;;;;4.78;1.75;;;;;;;;;;5046968;28;20032;-66
2021/10/02 07:39:58;;;;;;;6.30;1.98;;;;;;;;;;5048118;28;20012;-65
2021/10/02 07:42:24;;;;;;;5.22;2.15;;;;;;;;;;5048377;28;20473;-67
2021/10/02 07:44:53;;;;;;;5.70;2.60;;;;;;;;;;5049206;28;20089;-67
2021/10/02 07:47:18;;;;;;;6.50;2.05;;;;;;;;;;5049344;28;20558;-65
2021/10/02 07:49:44;;;;;;;5.90;2.10;;;;;;;;;;5049683;28;20060;-65
2021/10/02 07:52:09;;;;;;;4.43;1.83;;;;;;;;;;5048983;28;20082;-65
2021/10/02 07:54:35;;;;;;;2.45;1.13;;;;;;;;;;5042628;28;20156;-65
2021/10/02 07:57:00;;;;;;;22.92;3.78;;;;;;;;;;5045814;28;20400;-66
2021/10/02 07:59:26;;;;;;;4.63;2.38;;;;;;;;;;5048959;28;20784;-65
2021/10/02 08:01:51;;;;;;;5.88;2.90;;;;;;;;;;5048100;28;20025;-68
2021/10/02 08:04:17;;;;;;;3.72;2.25;;;;;;;;;;5048522;28;20032;-66
2021/10/02 08:06:42;;;;;;;3.05;1.85;;;;;;;;;;5046122;28;20028;-66
2021/10/02 08:09:07;;;;;;;1.38;0.70;;;;;;;;;;5048661;28;20009;-67
2021/10/02 08:11:33;;;;;;;5.22;2.47;;;;;;;;;;5048421;28;20033;-68
2021/10/02 08:13:58;;;;;;;4.18;1.95;;;;;;;;;;5048726;28;20079;-68
2021/10/02 08:16:28;;;;;;;4.75;1.80;;;;;;;;;;5047030;28;20035;-67
2021/10/02 08:18:57;;;;;;;3.28;1.65;;;;;;;;;;5048998;28;20057;-67
2021/10/02 08:21:23;;;;;;;4.05;1.60;;;;;;;;;;5048021;28;20124;-67
2021/10/02 08:23:48;;;;;;;2.30;1.00;;;;;;;;;;5048207;28;20222;-67
2021/10/02 08:26:14;;;;;;;2.63;1.52;;;;;;;;;;5048388;28;20021;-68
2021/10/02 08:28:43;;;;;;;2.20;1.50;;;;;;;;;;5048702;28;20032;-68
2021/10/02 08:31:09;;;;;;;2.58;1.42;;;;;;;;;;5048671;28;20032;-66
2021/10/02 08:33:34;;;;;;;3.53;1.80;;;;;;;;;;5047930;28;20029;-66
2021/10/02 08:35:59;;;;;;;5.85;2.20;;;;;;;;;;5048473;28;20092;-66
2021/10/02 08:38:24;;;;;;;4.00;1.77;;;;;;;;;;5045323;28;20124;-67
2021/10/02 08:40:53;;;;;;;4.63;1.88;;;;;;;;;;5042927;28;20260;-67
2021/10/02 08:43:18;;;;;;;3.63;1.63;;;;;;;;;;5047264;28;20549;-66
2021/10/02 08:45:43;;;;;;;2.72;0.98;;;;;;;;;;5049000;28;20100;-65
2021/10/02 08:48:13;;;;;;;2.50;1.70;;;;;;;;;;5048361;28;20099;-67
2021/10/02 08:50:39;;;;;;;7.20;2.80;;;;;;;;;;5048344;28;20028;-66
2021/10/02 08:53:04;;;;;;;2.97;1.20;;;;;;;;;;5046550;28;20025;-66
2021/10/02 08:55:29;;;;;;;5.82;1.85;;;;;;;;;;5047934;28;20023;-66
2021/10/02 08:57:54;;;;;;;3.95;1.17;;;;;;;;;;5048599;28;20113;-66
2021/10/02 09:00:22;;;;;;;1.55;0.95;;;;;;;;;;5047222;28;20028;-67
2021/10/02 09:02:48;;;;;;;2.13;1.30;;;;;;;;;;5040856;28;20035;-66
2021/10/02 09:05:18;;;;;;;5.82;1.60;;;;;;;;;;5047520;28;20127;-67
2021/10/02 09:07:44;;;;;;;5.20;1.60;;;;;;;;;;5045040;28;20025;-66
2021/10/02 09:10:11;;;;;;;2.10;1.30;;;;;;;;;;5047867;28;20062;-67
2021/10/02 09:12:39;;;;;;;5.60;1.95;;;;;;;;;;5050050;28;20029;-65
2021/10/02 09:15:05;;;;;;;3.13;1.77;;;;;;;;;;5049270;28;20055;-65
2021/10/02 09:17:30;;;;;;;5.00;2.15;;;;;;;;;;5049410;28;20093;-66
2021/10/02 09:19:56;;;;;;;2.67;1.15;;;;;;;;;;5047782;28;20082;-66
2021/10/02 09:22:24;;;;;;;2.95;1.65;;;;;;;;;;5048747;28;20025;-65
2021/10/02 09:24:50;;;;;;;3.22;2.10;;;;;;;;;;5049817;28;20021;-68
2021/10/02 09:27:15;;;;;;;4.00;2.05;;;;;;;;;;5048561;28;20100;-68
2021/10/02 09:29:42;;;;;;;5.60;1.73;;;;;;;;;;5050210;28;20500;-66
2021/10/02 09:32:09;;;;;;;4.05;1.85;;;;;;;;;;5049425;28;20509;-67
2021/10/02 09:34:42;;;;;;;3.05;1.23;;;;;;;;;;5051831;28;20025;-67
2021/10/02 09:37:14;;;;;;;5.18;2.42;;;;;;;;;;5053813;28;20036;-67
2021/10/02 09:39:42;;;;;;;5.35;2.00;;;;;;;;;;5054139;28;20267;-66
2021/10/02 09:42:17;;;;;;;2.58;1.58;;;;;;;;;;5053517;28;20025;-67
2021/10/02 09:44:43;;;;;;;1.98;1.08;;;;;;;;;;5050865;28;20116;-68
2021/10/02 09:47:13;;;;;;;3.40;1.77;;;;;;;;;;5052946;28;20103;-67
2021/10/02 09:49:42;;;;;;;4.80;1.70;;;;;;;;;;5053207;28;20333;-67
2021/10/02 09:52:24;;;;;;;3.10;1.60;;;;;;;;;;5052880;28;20021;-67
2021/10/02 09:54:49;;;;;;;3.60;1.40;;;;;;;;;;5053390;28;20032;-67
2021/10/02 09:57:15;;;;;;;2.93;1.67;;;;;;;;;;5053398;28;20024;-66
2021/10/02 09:59:40;;;;;;;3.33;1.52;;;;;;;;;;5055184;28;20313;-67
2021/10/02 10:02:16;;;;;;;2.47;0.95;;;;;;;;;;5054852;28;20025;-67
2021/10/02 10:04:48;;;;;;;7.38;1.33;;;;;;;;;;5039855;28;20052;-67
2021/10/02 10:07:13;;;;;;;2.67;1.38;;;;;;;;;;5047789;28;20108;-67
2021/10/02 10:09:39;;;;;;;2.07;1.13;;;;;;;;;;5053471;28;20108;-68
2021/10/02 10:12:05;;;;;;;1.77;0.80;;;;;;;;;;5052304;28;20259;-67
2021/10/02 10:14:30;;;;;;;0.80;0.70;;;;;;;;;;5053243;28;20384;-66
2021/10/02 10:16:56;;;;;;;0.93;0.63;;;;;;;;;;5052729;28;20060;-67
2021/10/02 10:19:23;;;;;;;3.72;1.38;;;;;;;;;;5053197;28;20251;-67
2021/10/02 10:22:07;;;;;;;5.22;1.17;;;;;;;;;;5052469;28;20226;-68
2021/10/02 10:24:32;;;;;;;1.13;0.80;;;;;;;;;;5052911;28;20021;-68
2021/10/02 10:26:58;;;;;;;3.42;1.30;;;;;;;;;;5053825;28;20032;-67
2021/10/02 10:29:34;;;;;;;1.67;0.70;;;;;;;;;;5053903;28;20025;-67
2021/10/02 10:31:59;;;;;;;3.30;1.38;;;;;;;;;;5053650;28;20063;-66
2021/10/02 10:34:24;;;;;;;2.15;1.02;;;;;;;;;;5051400;28;20048;-67
2021/10/02 10:36:49;;;;;;;2.57;0.93;;;;;;;;;;5052105;28;20063;-67
2021/10/02 10:39:15;;;;;;;2.45;1.10;;;;;;;;;;5051852;28;20287;-67
2021/10/02 10:41:41;;;;;;;2.08;1.10;;;;;;;;;;5051703;28;20075;-64
2021/10/02 10:44:06;;;;;;;2.17;0.75;;;;;;;;;;5050361;28;20029;-65
2021/10/02 10:46:32;;;;;;;2.22;0.98;;;;;;;;;;5051574;28;20021;-65
2021/10/02 10:48:58;;;;;;;0.73;0.60;;;;;;;;;;5052274;28;20028;-65
2021/10/02 10:51:27;;;;;;;5.07;0.52;;;;;;;;;;5052048;28;20028;-66
2021/10/02 10:53:53;;;;;;;0.90;0.70;;;;;;;;;;5050435;28;20025;-67
2021/10/02 10:56:38;;;;;;;1.35;0.75;;;;;;;;;;5052549;28;20024;-65
2021/10/02 10:59:04;;;;;;;2.55;0.85;;;;;;;;;;5050575;28;20028;-66
2021/10/02 11:01:39;;;;;;;0.55;0.30;;;;;;;;;;5049956;28;20017;-65
2021/10/02 11:04:05;;;;;;;2.53;0.90;;;;;;;;;;5051179;28;20067;-66
2021/10/02 11:06:50;;;;;;;2.65;0.68;;;;;;;;;;5051584;28;20029;-67
2021/10/02 11:09:16;;;;;;;2.08;0.50;;;;;;;;;;5048748;28;20025;-65
2021/10/02 11:11:51;;;;;;;0.40;0.32;;;;;;;;;;5050671;28;20456;-64
2021/10/02 11:14:17;;;;;;;1.58;0.60;;;;;;;;;;5048784;28;20056;-66
2021/10/02 11:16:44;;;;;;;1.02;0.52;;;;;;;;;;5048651;28;20473;-65
2021/10/02 11:19:28;;;;;;;2.15;0.60;;;;;;;;;;5051711;28;20026;-65
2021/10/02 11:22:00;;;;;;;1.77;0.80;;;;;;;;;;5050513;28;20025;-65
2021/10/02 11:24:33;;;;;;;0.77;0.50;;;;;;;;;;5048984;28;20124;-64
2021/10/02 11:26:59;;;;;;;2.78;0.70;;;;;;;;;;5051766;28;20280;-65
2021/10/02 11:29:28;;;;;;;1.38;0.70;;;;;;;;;;5051441;28;20792;-64
2021/10/02 11:32:32;;;;;;;1.55;1.00;;;;;;;;;;5035642;28;20108;-67
2021/10/02 11:35:09;;;;;;;1.90;1.00;;;;;;;;;;4993224;28;20534;-65
2021/10/02 11:37:41;;;;;;;1.15;0.60;;;;;;;;;;5046742;28;20062;-64
2021/10/02 11:40:26;;;;;;;3.53;0.80;;;;;;;;;;5051362;28;20028;-64
2021/10/02 11:43:10;;;;;;;4.10;1.20;;;;;;;;;;5047931;28;20095;-65
2021/10/02 11:45:36;;;;;;;1.85;0.70;;;;;;;;;;5051341;28;20051;-66
2021/10/02 11:48:11;;;;;;;0.50;0.50;;;;;;;;;;5050555;28;20108;-65
2021/10/02 11:50:36;;;;;;;2.25;0.85;;;;;;;;;;5049559;28;20781;-64
2021/10/02 11:53:01;;;;;;;1.30;0.63;;;;;;;;;;5051083;28;20032;-64
2021/10/02 11:55:32;;;;;;;8.30;1.10;;;;;;;;;;5050697;28;20349;-64
2021/10/02 11:58:25;;;;;;;1.88;0.88;;;;;;;;;;5048781;28;20318;-64
2021/10/02 12:00:50;;;;;;;0.50;0.40;;;;;;;;;;5040490;28;20459;-66
2021/10/02 12:03:19;;;;;;;1.95;0.60;;;;;;;;;;5047205;28;20472;-65
2021/10/02 12:05:46;;;;;;;2.13;0.73;;;;;;;;;;5047016;28;20028;-66
2021/10/02 12:08:11;;;;;;;2.60;1.08;;;;;;;;;;5049690;28;20116;-66
2021/10/02 12:10:55;;;;;;;1.58;0.55;;;;;;;;;;5050091;28;20120;-66
2021/10/02 12:13:25;;;;;;;2.10;1.15;;;;;;;;;;5045842;28;20029;-66
2021/10/02 12:15:57;;;;;;;1.20;0.55;;;;;;;;;;5050480;28;20036;-65
2021/10/02 12:18:22;;;;;;;1.40;0.63;;;;;;;;;;5048626;28;20425;-65
2021/10/02 12:20:47;;;;;;;0.90;0.50;;;;;;;;;;5050345;28;20033;-65
2021/10/02 12:23:13;;;;;;;3.27;0.90;;;;;;;;;;5050168;28;20271;-66
2021/10/02 12:25:39;;;;;;;1.02;0.93;;;;;;;;;;5050178;28;20291;-65
2021/10/02 12:28:05;;;;;;;1.60;0.60;;;;;;;;;;5050533;28;20068;-66
2021/10/02 12:30:31;;;;;;;2.08;0.90;;;;;;;;;;5050150;28;20068;-66
2021/10/02 12:33:00;;;;;;;0.47;0.47;;;;;;;;;;5049518;28;20048;-66
2021/10/02 12:35:25;;;;;;;1.20;0.77;;;;;;;;;;5050236;28;20021;-67
2021/10/02 12:37:51;;;;;;;1.85;0.80;;;;;;;;;;5049780;28;20530;-66
2021/10/02 12:40:16;;;;;;;0.80;0.50;;;;;;;;;;5049718;28;20029;-66
2021/10/02 12:42:54;;;;;;;0.80;0.50;;;;;;;;;;5050123;28;20544;-65
2021/10/02 12:45:23;;;;;;;1.65;0.75;;;;;;;;;;5049294;28;20339;-66
2021/10/02 12:47:49;;;;;;;6.22;1.00;;;;;;;;;;5050452;28;20028;-65
2021/10/02 12:50:15;;;;;;;1.60;0.80;;;;;;;;;;5050391;28;20020;-66
2021/10/02 12:52:41;;;;;;;1.15;0.75;;;;;;;;;;5049713;28;20039;-66
2021/10/02 12:55:11;;;;;;;2.00;0.75;;;;;;;;;;5050266;28;20021;-66
2021/10/02 12:57:36;;;;;;;0.80;0.75;;;;;;;;;;5050319;28;20024;-65
2021/10/02 13:00:06;;;;;;;3.08;1.02;;;;;;;;;;5050343;28;20091;-64
2021/10/02 13:02:32;;;;;;;1.40;0.60;;;;;;;;;;5049351;28;20086;-67
2021/10/02 13:04:58;;;;;;;1.60;0.98;;;;;;;;;;5049882;28;20111;-67
2021/10/02 13:07:23;;;;;;;1.58;1.00;;;;;;;;;;5049097;28;20100;-67
2021/10/02 13:10:06;;;;;;;0.80;0.70;;;;;;;;;;5048875;28;20124;-67
2021/10/02 13:12:36;;;;;;;1.25;0.75;;;;;;;;;;5049163;28;20624;-66
2021/10/02 13:15:02;;;;;;;1.00;0.50;;;;;;;;;;5050185;28;20029;-66
2021/10/02 13:17:27;;;;;;;5.38;0.93;;;;;;;;;;5049427;28;20053;-67
2021/10/02 13:20:12;;;;;;;3.70;1.05;;;;;;;;;;5050184;28;20063;-67
2021/10/02 13:22:46;;;;;;;1.30;0.60;;;;;;;;;;5044097;28;20033;-66
2021/10/02 13:25:12;;;;;;;0.95;0.55;;;;;;;;;;5047052;28;20071;-67
2021/10/02 13:27:42;;;;;;;1.10;0.75;;;;;;;;;;5049711;28;20029;-67
2021/10/02 13:30:10;;;;;;;2.10;0.90;;;;;;;;;;5048388;28;20065;-67
2021/10/02 13:32:35;;;;;;;1.27;0.82;;;;;;;;;;5049162;28;20032;-67
2021/10/02 13:35:02;;;;;;;0.80;0.60;;;;;;;;;;5050020;28;20029;-66
2021/10/02 13:37:27;;;;;;;4.00;1.17;;;;;;;;;;5049644;28;20025;-67
2021/10/02 13:39:54;;;;;;;7.03;1.00;;;;;;;;;;5049055;28;20488;-64
2021/10/02 13:42:20;;;;;;;3.13;1.05;;;;;;;;;;5045745;28;20684;-66
2021/10/02 13:44:50;;;;;;;1.58;0.73;;;;;;;;;;5047435;28;20053;-67
2021/10/02 13:47:19;;;;;;;0.40;0.40;;;;;;;;;;5047340;28;20029;-66
2021/10/02 13:49:44;;;;;;;3.53;1.02;;;;;;;;;;5048839;28;20538;-66
2021/10/02 13:52:09;;;;;;;2.57;0.80;;;;;;;;;;5049761;28;20211;-67
2021/10/02 13:54:34;;;;;;;1.30;0.70;;;;;;;;;;5049136;28;20362;-66
2021/10/02 13:57:06;;;;;;;2.07;0.93;;;;;;;;;;5049215;28;20748;-67
2021/10/02 13:59:31;;;;;;;3.17;1.15;;;;;;;;;;5046825;28;21797;-67
2021/10/02 14:01:56;;;;;;;0.70;0.60;;;;;;;;;;5049329;28;20372;-67
2021/10/02 14:04:21;;;;;;;1.73;1.03;;;;;;;;;;5049513;28;20612;-67
2021/10/02 14:06:48;;;;;;;2.43;1.00;;;;;;;;;;5048522;28;20063;-65
2021/10/02 14:09:13;;;;;;;1.33;0.45;;;;;;;;;;5047162;28;20318;-65
2021/10/02 14:11:38;;;;;;;1.42;0.68;;;;;;;;;;5045400;28;20100;-65
2021/10/02 14:14:04;;;;;;;2.17;0.65;;;;;;;;;;5047891;28;20036;-66
2021/10/02 14:16:29;;;;;;;0.97;0.40;;;;;;;;;;5046874;28;20029;-64
2021/10/02 14:18:54;;;;;;;2.90;0.85;;;;;;;;;;5039544;28;20345;-65
2021/10/02 14:21:19;;;;;;;1.63;1.00;;;;;;;;;;5052203;28;20032;-65
2021/10/02 14:23:45;;;;;;;2.13;0.80;;;;;;;;;;5052205;28;20632;-65
2021/10/02 14:26:12;;;;;;;8.05;0.77;;;;;;;;;;5052584;28;20311;-65
2021/10/02 14:28:37;;;;;;;1.80;1.02;;;;;;;;;;5052751;28;20028;-64
2021/10/02 14:31:02;;;;;;;13.75;1.90;;;;;;;;;;5052747;28;20024;-64
2021/10/02 14:33:28;;;;;;;2.30;0.80;;;;;;;;;;5052401;28;20028;-65
2021/10/02 14:35:53;;;;;;;1.42;0.90;;;;;;;;;;5052649;28;20577;-64
2021/10/02 14:38:19;;;;;;;2.90;0.97;;;;;;;;;;5052541;28;20021;-65
2021/10/02 14:40:45;;;;;;;1.60;0.68;;;;;;;;;;5052254;28;20290;-65
2021/10/02 14:43:10;;;;;;;3.17;1.10;;;;;;;;;;5051914;28;20021;-67
2021/10/02 14:45:35;;;;;;;1.42;0.88;;;;;;;;;;5052206;28;20457;-64
2021/10/02 14:48:01;;;;;;;3.28;0.75;;;;;;;;;;5051963;28;20025;-65
2021/10/02 14:50:26;;;;;;;1.08;0.60;;;;;;;;;;5052193;28;20416;-64
2021/10/02 14:52:52;;;;;;;1.17;1.08;;;;;;;;;;5051778;28;20377;-65
2021/10/02 14:55:17;;;;;;;1.38;0.68;;;;;;;;;;5052290;28;20091;-64
2021/10/02 14:57:44;;;;;;;7.03;1.17;;;;;;;;;;5051752;28;20409;-66
2021/10/02 15:00:09;;;;;;;3.00;1.00;;;;;;;;;;5051514;28;20086;-65
2021/10/02 15:02:35;;;;;;;13.93;1.38;;;;;;;;;;5052253;28;20021;-66
2021/10/02 15:05:00;;;;;;;4.15;1.25;;;;;;;;;;5051925;28;20622;-65
2021/10/02 15:07:26;;;;;;;7.50;1.55;;;;;;;;;;5051568;28;20020;-65
2021/10/02 15:09:56;;;;;;;4.30;1.23;;;;;;;;;;5051454;28;20040;-65
2021/10/02 15:12:21;;;;;;;;;;;;;;;;;;5052404;28;20024;-65
2021/10/02 15:14:47;;;;;;;2.30;0.60;;;;;;;;;;5051347;28;19913;-66
2021/10/02 15:17:13;;;;;;;1.13;0.75;;;;;;;;;;5051019;28;20031;-66
2021/10/02 15:19:38;;;;;;;1.58;0.60;;;;;;;;;;5050963;28;20032;-65
2021/10/02 15:22:04;;;;;;;4.35;1.75;;;;;;;;;;5051809;28;20037;-66
2021/10/02 15:24:33;;;;;;;6.82;1.50;;;;;;;;;;5050681;28;20051;-65
2021/10/02 15:27:03;;;;;;;6.90;1.80;;;;;;;;;;5052122;28;20764;-64
2021/10/02 15:29:29;;;;;;;5.80;1.42;;;;;;;;;;5052176;28;20028;-65
2021/10/02 15:31:57;;;;;;;2.55;1.17;;;;;;;;;;5050738;28;20079;-66
2021/10/02 15:34:23;;;;;;;2.03;1.10;;;;;;;;;;5051546;28;20032;-66
2021/10/02 15:36:49;;;;;;;2.22;0.90;;;;;;;;;;5050707;28;20021;-65
2021/10/02 15:39:14;;;;;;;1.95;1.40;;;;;;;;;;5047529;28;20029;-66
2021/10/02 15:41:40;;;;;;;3.42;1.17;;;;;;;;;;5039264;28;20024;-65
2021/10/02 15:44:05;;;;;;;4.05;1.63;;;;;;;;;;5049459;28;20025;-64